createdAt,value
2019-03-01T00:01:39.169Z,10.41
2019-03-01T00:06:25.300Z,10.35
2019-03-01T00:11:06.985Z,10.28
2019-03-01T00:16:06.752Z,10.27
2019-03-01T00:21:01.429Z,10.18
2019-03-01T00:25:16.586Z,10.10
2019-03-01T00:30:20.952Z,10.10
2019-03-01T00:34:42.178Z,10.22
2019-03-01T00:39:30.850Z,10.21
2019-03-01T00:44:04.250Z,10.15
2019-03-01T00:48:11.918Z,10.03
2019-03-01T00:52:20.176Z,9.90
2019-03-01T00:56:27.884Z,9.74
2019-03-01T01:00:42.043Z,9.65
2019-03-01T01:04:50.353Z,9.56
2019-03-01T01:08:58.080Z,9.55
2019-03-01T01:13:06.226Z,9.50
2019-03-01T01:17:14.313Z,9.47
2019-03-01T01:21:21.934Z,9.47
2019-03-01T01:25:30.124Z,9.50
2019-03-01T01:29:37.750Z,9.50
2019-03-01T01:33:45.398Z,9.47
2019-03-01T01:37:53.360Z,9.65
2019-03-01T01:42:01.593Z,9.78
2019-03-01T01:46:09.200Z,9.93
2019-03-01T01:50:17.503Z,10.02
2019-03-01T01:54:25.835Z,10.07
2019-03-01T01:58:33.632Z,10.04
2019-03-01T02:02:42.077Z,9.99
2019-03-01T02:06:50.181Z,10.01
2019-03-01T02:10:58.086Z,10.07
2019-03-01T02:15:06.854Z,10.03
2019-03-01T02:19:14.544Z,10.04
2019-03-01T02:23:22.455Z,9.97
2019-03-01T02:27:33.528Z,9.86
2019-03-01T02:31:45.258Z,9.81
2019-03-01T02:35:53.361Z,9.78
2019-03-01T02:40:01.058Z,9.68
2019-03-01T02:44:09.799Z,9.85
2019-03-01T02:48:17.921Z,9.91
2019-03-01T02:52:25.593Z,9.84
2019-03-01T02:56:33.743Z,9.37
2019-03-01T03:00:43.402Z,9.44
2019-03-01T03:04:50.994Z,9.29
2019-03-01T03:08:59.390Z,9.16
2019-03-01T03:13:09.128Z,9.18
2019-03-01T03:17:18.284Z,9.23
2019-03-01T03:21:26.534Z,9.16
2019-03-01T03:25:34.336Z,9.00
2019-03-01T03:29:42.263Z,9.23
2019-03-01T03:33:50.578Z,9.42
2019-03-01T03:37:58.297Z,9.49
2019-03-01T03:42:06.821Z,9.53
2019-03-01T03:46:14.930Z,9.29
2019-03-01T03:50:22.640Z,8.94
2019-03-01T03:54:30.753Z,8.92
2019-03-01T03:58:38.791Z,8.49
2019-03-01T04:02:46.674Z,8.43
2019-03-01T04:06:55.199Z,8.25
2019-03-01T04:11:03.345Z,8.33
2019-03-01T04:15:12.083Z,8.21
2019-03-01T04:19:20.090Z,8.19
2019-03-01T04:23:27.906Z,8.19
2019-03-01T04:27:35.539Z,8.14
2019-03-01T04:31:43.620Z,8.02
2019-03-01T04:35:51.312Z,7.78
2019-03-01T04:39:59.126Z,7.95
2019-03-01T04:44:07.433Z,7.86
2019-03-01T04:48:15.748Z,7.79
2019-03-01T04:52:32.305Z,7.79
2019-03-01T04:56:40.188Z,8.04
2019-03-01T05:00:47.698Z,8.17
2019-03-01T05:04:55.606Z,8.24
2019-03-01T05:09:04.852Z,8.26
2019-03-01T05:13:13.397Z,8.28
2019-03-01T05:17:21.503Z,8.56
2019-03-01T05:21:29.634Z,8.66
2019-03-01T05:25:37.975Z,8.84
2019-03-01T05:29:45.831Z,9.03
2019-03-01T05:33:55.401Z,9.25
2019-03-01T05:38:04.149Z,9.52
2019-03-01T05:42:12.356Z,9.79
2019-03-01T05:46:19.976Z,9.92
2019-03-01T05:50:27.666Z,10.00
2019-03-01T05:54:35.895Z,9.92
2019-03-01T05:58:49.683Z,10.04
2019-03-01T06:03:42.002Z,10.22
2019-03-01T06:08:29.334Z,10.32
2019-03-01T06:13:13.705Z,10.73
2019-03-01T06:18:02.464Z,11.01
2019-03-01T06:22:57.284Z,11.35
2019-03-01T06:27:51.685Z,11.65
2019-03-01T06:32:39.117Z,11.66
2019-03-01T06:37:15.599Z,11.72
2019-03-01T06:41:57.997Z,11.78
2019-03-01T06:47:10.640Z,11.90
2019-03-01T06:51:28.736Z,12.03
2019-03-01T06:55:39.774Z,12.30
2019-03-01T06:59:48.102Z,12.35
2019-03-01T07:04:02.606Z,12.49
2019-03-01T07:08:10.192Z,12.47
2019-03-01T07:12:18.303Z,12.63
2019-03-01T07:16:26.608Z,12.91
2019-03-01T07:20:34.318Z,13.35
2019-03-01T07:24:42.050Z,13.33
2019-03-01T07:28:49.655Z,13.40
2019-03-01T07:32:57.761Z,13.51
2019-03-01T07:37:07.834Z,13.77
2019-03-01T07:41:15.360Z,14.09
2019-03-01T07:45:23.539Z,14.08
2019-03-01T07:49:31.760Z,14.06
2019-03-01T07:53:41.786Z,14.38
2019-03-01T07:57:49.801Z,14.41
2019-03-01T08:02:00.781Z,14.43
2019-03-01T08:06:13.117Z,14.64
2019-03-01T08:10:22.416Z,14.75
2019-03-01T08:14:28.358Z,15.08
2019-03-01T08:18:40.097Z,15.38
2019-03-01T08:22:49.080Z,15.51
2019-03-01T08:26:57.162Z,15.66
2019-03-01T08:31:05.685Z,15.55
2019-03-01T08:35:14.361Z,15.74
2019-03-01T08:39:22.087Z,15.84
2019-03-01T08:43:29.675Z,16.02
2019-03-01T08:47:38.607Z,16.31
2019-03-01T08:51:46.515Z,16.14
2019-03-01T08:55:54.529Z,16.06
2019-03-01T09:00:02.448Z,16.37
2019-03-01T09:04:16.994Z,16.73
2019-03-01T09:08:23.927Z,16.92
2019-03-01T09:12:32.039Z,16.85
2019-03-01T09:16:41.074Z,17.15
2019-03-01T09:20:49.182Z,17.17
2019-03-01T09:24:56.895Z,17.37
2019-03-01T09:29:04.671Z,17.37
2019-03-01T09:33:12.564Z,17.75
2019-03-01T09:37:22.374Z,17.45
2019-03-01T09:41:30.051Z,18.56
2019-03-01T09:45:38.321Z,18.56
2019-03-01T09:49:47.126Z,19.07
2019-03-01T09:53:54.736Z,18.64
2019-03-01T09:58:02.640Z,18.56
2019-03-01T10:02:10.457Z,18.25
2019-03-01T10:06:18.052Z,18.47
2019-03-01T10:10:27.821Z,18.49
2019-03-01T10:14:35.569Z,18.81
2019-03-01T10:18:43.216Z,19.14
2019-03-01T10:22:51.555Z,19.40
2019-03-01T10:26:59.464Z,18.82
2019-03-01T10:31:07.588Z,18.76
2019-03-01T10:35:16.335Z,18.98
2019-03-01T10:39:23.892Z,19.87
2019-03-01T10:43:32.087Z,20.39
2019-03-01T10:47:40.366Z,20.73
2019-03-01T10:51:48.072Z,21.12
2019-03-01T10:55:56.334Z,20.91
2019-03-01T11:00:04.320Z,20.94
2019-03-01T11:04:12.465Z,20.19
2019-03-01T11:08:20.337Z,20.46
2019-03-01T11:12:28.493Z,20.26
2019-03-01T11:16:36.229Z,20.50
2019-03-01T11:20:45.705Z,20.61
2019-03-01T11:24:54.690Z,20.80
2019-03-01T11:29:02.350Z,20.73
2019-03-01T11:33:10.654Z,20.31
2019-03-01T11:37:18.481Z,21.04
2019-03-01T11:41:27.225Z,21.36
2019-03-01T11:45:35.081Z,21.65
2019-03-01T11:49:43.866Z,22.14
2019-03-01T11:53:52.113Z,22.34
2019-03-01T11:57:59.982Z,21.88
2019-03-01T12:02:07.788Z,21.38
2019-03-01T12:06:15.615Z,21.45
2019-03-01T12:10:25.649Z,21.53
2019-03-01T12:14:33.283Z,21.91
2019-03-01T12:18:41.419Z,22.04
2019-03-01T12:22:49.642Z,21.35
2019-03-01T12:26:57.400Z,20.38
2019-03-01T12:31:05.425Z,19.37
2019-03-01T12:35:13.081Z,19.64
2019-03-01T12:39:20.662Z,20.37
2019-03-01T12:43:28.456Z,20.13
2019-03-01T12:47:36.776Z,19.56
2019-03-01T12:51:44.398Z,18.98
2019-03-01T12:55:52.714Z,18.77
2019-03-01T13:00:00.436Z,18.32
2019-03-01T13:04:08.118Z,17.17
2019-03-01T13:08:16.709Z,16.84
2019-03-01T13:12:26.081Z,15.19
2019-03-01T13:16:33.875Z,15.19
2019-03-01T13:20:41.720Z,14.25
2019-03-01T13:24:50.408Z,14.10
2019-03-01T13:28:58.980Z,13.95
2019-03-01T13:33:06.918Z,13.85
2019-03-01T13:37:19.426Z,13.99
2019-03-01T13:41:25.389Z,14.01
2019-03-01T13:45:33.598Z,14.49
2019-03-01T13:49:41.306Z,14.76
2019-03-01T13:53:49.562Z,14.57
2019-03-01T13:57:57.747Z,14.44
2019-03-01T14:02:07.564Z,14.43
2019-03-01T14:06:16.046Z,14.39
2019-03-01T14:10:24.845Z,14.00
2019-03-01T14:14:32.565Z,13.63
2019-03-01T14:18:40.684Z,13.61
2019-03-01T14:22:49.417Z,13.45
2019-03-01T14:26:59.058Z,13.42
2019-03-01T14:31:07.508Z,13.05
2019-03-01T14:35:16.442Z,12.97
2019-03-01T14:39:25.110Z,12.89
2019-03-01T14:43:33.009Z,12.75
2019-03-01T14:47:40.888Z,12.31
2019-03-01T14:51:48.721Z,12.33
2019-03-01T14:56:01.885Z,12.26
2019-03-01T15:00:14.669Z,12.07
2019-03-01T15:04:28.483Z,11.97
2019-03-01T15:08:33.390Z,11.67
2019-03-01T15:12:41.664Z,11.93
2019-03-01T15:16:49.811Z,11.62
2019-03-01T15:21:02.374Z,11.63
2019-03-01T15:25:12.061Z,11.78
2019-03-01T15:29:18.648Z,11.85
2019-03-01T15:33:26.263Z,11.53
2019-03-01T15:37:35.982Z,11.58
2019-03-01T15:41:43.910Z,11.68
2019-03-01T15:45:52.049Z,11.68
2019-03-01T15:50:00.052Z,11.54
2019-03-01T15:54:07.855Z,11.14
2019-03-01T15:58:16.203Z,11.12
2019-03-01T16:02:24.082Z,10.85
2019-03-01T16:06:32.441Z,10.78
2019-03-01T16:10:40.529Z,10.94
2019-03-01T16:14:48.357Z,10.95
2019-03-01T16:18:56.378Z,10.78
2019-03-01T16:23:06.374Z,10.78
2019-03-01T16:27:15.471Z,10.58
2019-03-01T16:31:24.089Z,10.61
2019-03-01T16:35:31.751Z,10.72
2019-03-01T16:39:39.927Z,10.44
2019-03-01T16:43:48.064Z,10.76
2019-03-01T16:47:55.950Z,10.52
2019-03-01T16:52:06.156Z,10.54
2019-03-01T16:56:14.029Z,10.67
2019-03-01T17:00:22.213Z,10.60
2019-03-01T17:04:30.143Z,10.55
2019-03-01T17:08:39.632Z,10.11
2019-03-01T17:12:48.765Z,10.11
2019-03-01T17:16:59.582Z,10.28
2019-03-01T17:21:08.730Z,10.09
2019-03-01T17:25:19.309Z,9.93
2019-03-01T17:29:26.856Z,10.05
2019-03-01T17:33:34.757Z,10.10
2019-03-01T17:37:42.562Z,10.01
2019-03-01T17:41:50.277Z,10.01
2019-03-01T17:45:58.530Z,9.89
2019-03-01T17:50:08.615Z,9.92
2019-03-01T17:54:18.969Z,9.67
2019-03-01T17:58:26.687Z,9.69
2019-03-01T18:02:34.850Z,9.70
2019-03-01T18:06:42.774Z,9.51
2019-03-01T18:10:50.780Z,9.41
2019-03-01T18:14:58.970Z,8.97
2019-03-01T18:19:07.213Z,9.24
2019-03-01T18:23:15.209Z,9.31
2019-03-01T18:27:23.544Z,9.22
2019-03-01T18:31:34.549Z,9.26
2019-03-01T18:35:40.813Z,9.16
2019-03-01T18:39:48.637Z,9.08
2019-03-01T18:43:57.956Z,9.22
2019-03-01T18:48:08.786Z,9.25
2019-03-01T18:52:17.622Z,8.93
2019-03-01T18:56:28.637Z,8.55
2019-03-01T19:00:37.056Z,8.74
2019-03-01T19:04:45.237Z,8.58
2019-03-01T19:08:53.342Z,8.76
2019-03-01T19:13:01.233Z,8.62
2019-03-01T19:17:09.664Z,8.54
2019-03-01T19:21:18.215Z,8.73
2019-03-01T19:25:26.668Z,8.54
2019-03-01T19:29:34.967Z,8.36
2019-03-01T19:33:43.130Z,8.46
2019-03-01T19:37:51.471Z,8.30
2019-03-01T19:41:59.795Z,8.46
2019-03-01T19:46:07.928Z,8.54
2019-03-01T19:50:21.864Z,8.54
2019-03-01T19:54:32.310Z,8.30
2019-03-01T19:58:39.528Z,8.07
2019-03-01T20:02:47.477Z,8.06
2019-03-01T20:06:56.388Z,7.78
2019-03-01T20:11:04.714Z,8.14
2019-03-01T20:15:18.034Z,8.24
2019-03-01T20:19:25.852Z,8.24
2019-03-01T20:23:34.188Z,8.27
2019-03-01T20:27:42.238Z,8.31
2019-03-01T20:31:50.116Z,8.24
2019-03-01T20:35:58.743Z,7.94
2019-03-01T20:40:06.848Z,7.56
2019-03-01T20:44:14.786Z,7.47
2019-03-01T20:48:25.596Z,7.75
2019-03-01T20:52:34.825Z,7.75
2019-03-01T20:56:42.813Z,7.72
2019-03-01T21:00:50.714Z,7.65
2019-03-01T21:04:58.734Z,7.56
2019-03-01T21:09:07.215Z,7.36
2019-03-01T21:13:16.904Z,6.82
2019-03-01T21:17:24.717Z,7.26
2019-03-01T21:21:32.453Z,7.13
2019-03-01T21:25:40.831Z,7.26
2019-03-01T21:29:49.097Z,7.38
2019-03-01T21:33:59.387Z,7.48
2019-03-01T21:38:07.350Z,7.49
2019-03-01T21:42:16.914Z,7.39
2019-03-01T21:46:25.648Z,7.30
2019-03-01T21:50:34.068Z,7.48
2019-03-01T21:54:41.951Z,7.43
2019-03-01T21:58:49.887Z,7.33
2019-03-01T22:02:58.417Z,7.26
2019-03-01T22:07:07.328Z,7.30
2019-03-01T22:11:15.415Z,7.37
2019-03-01T22:15:25.429Z,7.61
2019-03-01T22:19:34.731Z,7.91
2019-03-01T22:23:43.726Z,8.09
2019-03-01T22:27:51.816Z,8.17
2019-03-01T22:32:00.366Z,8.64
2019-03-01T22:36:08.252Z,9.34
2019-03-01T22:40:16.344Z,9.85
2019-03-01T22:44:24.625Z,10.03
2019-03-01T22:48:32.814Z,9.99
2019-03-01T22:52:40.540Z,9.95
2019-03-01T22:56:49.595Z,9.92
2019-03-01T23:01:16.295Z,9.93
2019-03-01T23:05:24.931Z,9.80
2019-03-01T23:09:33.373Z,9.64
2019-03-01T23:13:41.106Z,9.53
2019-03-01T23:17:49.320Z,9.38
2019-03-01T23:21:57.720Z,9.26
2019-03-01T23:26:05.552Z,9.22
2019-03-01T23:30:13.967Z,9.13
2019-03-01T23:34:22.382Z,8.99
2019-03-01T23:38:30.306Z,8.85
2019-03-01T23:42:38.427Z,8.78
2019-03-01T23:46:46.215Z,8.64
2019-03-01T23:50:54.226Z,8.49
2019-03-01T23:55:02.465Z,8.52
2019-03-01T23:59:10.267Z,8.52
